Time;durP1;ratioP1;P1;durP2;ratioP2;P2;SDS_P1;SDS_P2;PMS_P1;PMS_P2;Temp;Humidity;BMP_temperature;BMP_pressure;BME280_temperature;BME280_humidity;BME280_pressure;Samples;Min_cycle;Max_cycle;Signal;HPM_P1;HPM_P2
2021/04/02 00:00:24;;;;;;;1999.90;999.90;;;9.90;99.90;;;;;;4827308;29;20177;-77
2021/04/02 00:02:50;;;;;;;1999.90;999.90;;;9.80;99.90;;;;;;4827647;29;20177;-77
2021/04/02 00:05:18;;;;;;;1999.90;999.90;;;9.90;99.90;;;;;;4826956;29;20176;-77
2021/04/02 00:07:45;;;;;;;1999.90;999.90;;;9.90;99.90;;;;;;4826827;29;20534;-77
2021/04/02 00:10:19;;;;;;;1999.90;999.90;;;9.80;99.90;;;;;;4826879;29;20175;-77
2021/04/02 00:12:46;;;;;;;1999.90;999.90;;;9.70;99.90;;;;;;4826881;29;20213;-77
2021/04/02 00:15:20;;;;;;;1999.90;999.90;;;9.60;99.90;;;;;;4827001;29;20176;-77
2021/04/02 00:17:46;;;;;;;1999.90;999.90;;;9.60;99.90;;;;;;4826705;29;20659;-77
2021/04/02 00:20:16;;;;;;;1999.90;999.90;;;9.70;99.90;;;;;;4826807;29;20165;-77
2021/04/02 00:22:42;;;;;;;1999.90;999.90;;;9.70;99.90;;;;;;4826896;29;20570;-77
2021/04/02 00:25:10;;;;;;;1999.90;999.90;;;9.90;99.90;;;;;;4826634;29;20168;-77
2021/04/02 00:27:35;;;;;;;1999.90;999.90;;;9.90;99.90;;;;;;4826458;29;20189;-77
2021/04/02 00:30:09;;;;;;;1999.90;999.90;;;10.00;99.90;;;;;;4826545;29;20179;-77
2021/04/02 00:32:34;;;;;;;1999.90;999.90;;;9.90;99.90;;;;;;4826444;29;20184;-77
2021/04/02 00:35:00;;;;;;;1999.90;999.90;;;9.80;99.90;;;;;;4826762;29;20641;-77
2021/04/02 00:37:25;;;;;;;1999.90;999.90;;;9.60;99.90;;;;;;4826250;29;20584;-77
2021/04/02 00:39:51;;;;;;;1999.90;999.90;;;9.70;99.90;;;;;;4826589;29;20575;-77
2021/04/02 00:42:17;;;;;;;1999.90;999.90;;;9.90;99.90;;;;;;4826341;29;20165;-77
2021/04/02 00:44:42;;;;;;;1999.90;999.90;;;10.00;99.90;;;;;;4826253;29;20173;-77
2021/04/02 00:47:08;;;;;;;1999.90;999.90;;;10.00;99.90;;;;;;4826174;29;20233;-77
2021/04/02 00:49:34;;;;;;;1999.90;999.90;;;9.90;99.90;;;;;;4826272;29;20169;-77
2021/04/02 00:51:59;;;;;;;1999.90;999.90;;;9.90;99.90;;;;;;4826696;29;20177;-77
2021/04/02 00:54:25;;;;;;;1999.90;999.90;;;10.00;99.90;;;;;;4826206;29;20596;-77
2021/04/02 00:56:50;;;;;;;1999.90;999.90;;;10.00;99.90;;;;;;4825807;29;20700;-77
2021/04/02 00:59:16;;;;;;;1999.90;999.90;;;10.00;99.90;;;;;;4826125;29;20188;-77
2021/04/02 01:01:42;;;;;;;1999.90;999.90;;;9.90;99.90;;;;;;4826359;29;20193;-77
2021/04/02 01:04:08;;;;;;;1999.90;999.90;;;9.80;99.90;;;;;;4826635;29;20634;-77
2021/04/02 01:06:33;;;;;;;1999.90;999.90;;;9.70;99.90;;;;;;4809581;29;20561;-77
2021/04/02 01:08:59;;;;;;;1999.90;999.90;;;9.70;99.90;;;;;;4825885;29;20206;-77
2021/04/02 01:11:27;;;;;;;1999.90;999.90;;;9.70;99.90;;;;;;4809581;29;20540;-77
2021/04/02 01:13:58;;;;;;;1999.90;999.90;;;9.70;99.90;;;;;;4825910;29;20755;-77
2021/04/02 01:16:32;;;;;;;1999.90;999.90;;;9.60;99.90;;;;;;4809419;29;20203;-77
2021/04/02 01:19:28;;;;;;;1999.90;999.90;;;9.60;99.90;;;;;;4825742;29;20279;-77
2021/04/02 01:22:04;;;;;;;1999.90;999.90;;;9.50;99.90;;;;;;4826094;29;20168;-77
2021/04/02 01:24:52;;;;;;;1999.90;999.90;;;9.40;99.90;;;;;;4826117;29;20153;-77
2021/04/02 01:27:41;;;;;;;1999.90;999.90;;;9.40;99.90;;;;;;4826250;29;20189;-77
2021/04/02 01:30:10;;;;;;;1999.90;999.90;;;9.30;99.90;;;;;;4825696;29;20167;-77
2021/04/02 01:32:45;;;;;;;1999.90;999.90;;;9.30;99.90;;;;;;4825544;29;20221;-77
2021/04/02 01:35:20;;;;;;;1999.90;999.90;;;9.30;99.90;;;;;;4825877;29;20194;-77
2021/04/02 01:37:51;;;;;;;1999.90;999.90;;;9.20;99.90;;;;;;4825263;29;20212;-77
2021/04/02 01:40:19;;;;;;;1999.90;999.90;;;9.10;99.90;;;;;;4825508;29;20172;-77
2021/04/02 01:42:47;;;;;;;1999.90;999.90;;;9.10;99.90;;;;;;4825448;29;20541;-77
2021/04/02 01:45:16;;;;;;;1999.90;999.90;;;9.00;99.90;;;;;;4809057;29;20173;-77
2021/04/02 01:47:43;;;;;;;1999.90;999.90;;;9.10;99.90;;;;;;4825403;29;20546;-77
2021/04/02 01:50:13;;;;;;;1999.90;999.90;;;9.10;99.90;;;;;;4825314;29;20181;-77
2021/04/02 01:52:40;;;;;;;1999.90;999.90;;;9.10;99.90;;;;;;4825637;29;20157;-77
2021/04/02 01:55:10;;;;;;;1999.90;999.90;;;9.10;99.90;;;;;;4825220;29;20706;-77
2021/04/02 01:57:38;;;;;;;1999.90;999.90;;;9.20;99.90;;;;;;4825072;29;20225;-77
2021/04/02 02:00:24;;;;;;;1999.90;999.90;;;9.10;99.90;;;;;;4825481;29;20219;-77
2021/04/02 02:02:52;;;;;;;1999.90;999.90;;;9.10;99.90;;;;;;4825414;29;20164;-77
2021/04/02 02:05:18;;;;;;;1999.90;999.90;;;9.10;99.90;;;;;;4825135;29;20177;-77
2021/04/02 02:07:46;;;;;;;1999.90;999.90;;;9.10;99.90;;;;;;4824171;29;20208;-77
2021/04/02 02:10:14;;;;;;;1999.90;999.90;;;9.00;99.90;;;;;;4825313;29;20176;-77
2021/04/02 02:12:42;;;;;;;1999.90;999.90;;;8.90;99.90;;;;;;4825038;29;20215;-77
2021/04/02 02:15:11;;;;;;;1999.90;999.90;;;8.90;99.90;;;;;;4825183;29;20641;-77
2021/04/02 02:17:38;;;;;;;1999.90;999.90;;;8.90;99.90;;;;;;4825011;29;20689;-77
2021/04/02 02:20:09;;;;;;;1999.90;999.90;;;8.80;99.90;;;;;;4825159;29;20169;-77
2021/04/02 02:22:38;;;;;;;1999.90;999.90;;;8.80;99.90;;;;;;4824958;29;20263;-77
2021/04/02 02:25:09;;;;;;;1999.90;999.90;;;8.80;99.90;;;;;;4824839;29;20176;-77
2021/04/02 02:27:38;;;;;;;1999.90;999.90;;;8.80;99.90;;;;;;4824774;29;20193;-77
2021/04/02 02:30:17;;;;;;;1999.90;999.90;;;8.70;99.90;;;;;;4824971;29;20173;-77
2021/04/02 02:32:43;;;;;;;1999.90;999.90;;;8.70;99.90;;;;;;4824991;29;20182;-77
2021/04/02 02:35:10;;;;;;;1999.90;999.90;;;8.70;99.90;;;;;;4824965;29;20675;-77
2021/04/02 02:37:39;;;;;;;1999.90;999.90;;;8.70;99.90;;;;;;4824441;29;20212;-77
2021/04/02 02:40:14;;;;;;;1999.90;999.90;;;8.60;99.90;;;;;;4808206;29;20169;-77
2021/04/02 02:42:40;;;;;;;1999.90;999.90;;;8.60;99.90;;;;;;4824870;29;20514;-77
2021/04/02 02:45:09;;;;;;;1999.90;999.90;;;8.70;99.90;;;;;;4824586;29;20169;-77
2021/04/02 02:47:35;;;;;;;1999.90;999.90;;;8.70;99.90;;;;;;4824643;29;20188;-77
2021/04/02 02:50:07;;;;;;;1999.90;999.90;;;8.80;99.90;;;;;;4824567;29;20168;-77
2021/04/02 02:52:35;;;;;;;1999.90;999.90;;;8.70;99.90;;;;;;4824768;29;20161;-77
2021/04/02 02:55:02;;;;;;;1999.90;999.90;;;8.80;99.90;;;;;;4824488;29;20172;-77
2021/04/02 02:57:31;;;;;;;1999.90;999.90;;;8.70;99.90;;;;;;4824222;29;20185;-77
2021/04/02 02:59:59;;;;;;;1999.90;999.90;;;8.70;99.90;;;;;;4824409;29;20172;-77
2021/04/02 03:02:26;;;;;;;1999.90;999.90;;;8.70;99.90;;;;;;4807910;29;20657;-77
2021/04/02 03:04:54;;;;;;;1999.90;999.90;;;8.70;99.90;;;;;;4824303;29;20180;-77
2021/04/02 03:07:21;;;;;;;1999.90;999.90;;;8.80;99.90;;;;;;4824249;29;20189;-77
2021/04/02 03:09:49;;;;;;;1999.90;999.90;;;8.80;99.90;;;;;;4807860;29;20188;-77
2021/04/02 03:12:16;;;;;;;1999.90;999.90;;;8.70;99.90;;;;;;4824426;29;20203;-77
2021/04/02 03:14:44;;;;;;;1999.90;999.90;;;8.60;99.90;;;;;;4824218;29;20583;-77
2021/04/02 03:17:10;;;;;;;1999.90;999.90;;;8.50;99.90;;;;;;4824106;29;20200;-77
2021/04/02 03:19:38;;;;;;;1999.90;999.90;;;8.50;99.90;;;;;;4809112;29;20200;-77
2021/04/02 03:22:06;;;;;;;1999.90;999.90;;;8.60;99.90;;;;;;4828059;29;20169;-77
2021/04/02 03:24:34;;;;;;;1999.90;999.90;;;8.70;99.90;;;;;;4827767;29;20645;-77
2021/04/02 03:27:01;;;;;;;1999.90;999.90;;;8.70;99.90;;;;;;4827737;29;20188;-77
2021/04/02 03:29:28;;;;;;;1999.90;999.90;;;8.70;99.90;;;;;;4827661;29;20183;-77
2021/04/02 03:32:02;;;;;;;1999.90;999.90;;;8.60;99.90;;;;;;4811241;29;20172;-77
2021/04/02 03:34:29;;;;;;;1999.90;999.90;;;8.50;99.90;;;;;;4827806;29;20206;-77
2021/04/02 03:36:58;;;;;;;1999.90;999.90;;;8.60;99.90;;;;;;4811098;29;20364;-77
2021/04/02 03:39:29;;;;;;;1999.90;999.90;;;8.60;99.90;;;;;;4811086;29;20204;-77
2021/04/02 03:41:58;;;;;;;1999.90;999.90;;;8.50;99.90;;;;;;4811453;29;20173;-76
2021/04/02 03:44:29;;;;;;;1999.90;999.90;;;8.60;99.90;;;;;;4827491;29;20169;-77
2021/04/02 03:46:56;;;;;;;1999.90;999.90;;;8.50;99.90;;;;;;4827609;29;20677;-77
2021/04/02 03:49:26;;;;;;;1999.90;999.90;;;8.50;99.90;;;;;;4810981;29;20176;-77
2021/04/02 03:51:58;;;;;;;1999.90;999.90;;;8.60;99.90;;;;;;4811241;29;20173;-77
2021/04/02 03:54:27;;;;;;;1999.90;999.90;;;8.60;99.90;;;;;;4811039;29;20169;-77
2021/04/02 03:56:56;;;;;;;1999.90;999.90;;;8.60;99.90;;;;;;4827655;29;20193;-77
2021/04/02 03:59:24;;;;;;;1999.90;999.90;;;8.60;99.90;;;;;;4826998;29;20220;-77
2021/04/02 04:01:52;;;;;;;1999.90;999.90;;;8.30;99.90;;;;;;4827062;29;20653;-78
2021/04/02 04:04:23;;;;;;;1999.90;999.90;;;8.30;99.90;;;;;;4827288;29;20664;-77
2021/04/02 04:06:52;;;;;;;1999.90;999.90;;;8.30;99.90;;;;;;4827004;29;20196;-77
2021/04/02 04:09:19;;;;;;;1999.90;999.90;;;8.30;99.90;;;;;;4810814;29;20233;-77
2021/04/02 04:11:47;;;;;;;1999.90;999.90;;;8.40;99.90;;;;;;4811489;29;20645;-77
2021/04/02 04:14:15;;;;;;;1999.90;999.90;;;8.40;99.90;;;;;;4826842;29;20177;-77
2021/04/02 04:16:43;;;;;;;1999.90;999.90;;;8.30;99.90;;;;;;4826736;29;20188;-77
2021/04/02 04:19:11;;;;;;;1999.90;999.90;;;8.10;99.90;;;;;;4826717;29;20200;-77
2021/04/02 04:21:40;;;;;;;1999.90;999.90;;;8.00;99.90;;;;;;4826767;29;20191;-77
2021/04/02 04:24:11;;;;;;;1999.90;999.90;;;8.00;99.90;;;;;;4826603;29;20212;-77
2021/04/02 04:26:38;;;;;;;1999.90;999.90;;;8.00;99.90;;;;;;4826767;29;20275;-77
2021/04/02 04:29:06;;;;;;;1999.90;999.90;;;7.90;99.90;;;;;;4826533;29;20176;-77
2021/04/02 04:31:33;;;;;;;1999.90;999.90;;;7.80;99.90;;;;;;4809649;29;20200;-77
2021/04/02 04:34:01;;;;;;;1999.90;999.90;;;7.70;99.90;;;;;;4826596;29;20327;-77
2021/04/02 04:36:29;;;;;;;1999.90;999.90;;;7.60;99.90;;;;;;4810659;29;20307;-77
2021/04/02 04:38:56;;;;;;;1999.90;999.90;;;7.70;99.90;;;;;;4826434;29;20184;-77
2021/04/02 04:41:24;;;;;;;1999.90;999.90;;;7.60;99.90;;;;;;4826386;29;20164;-77
2021/04/02 04:43:52;;;;;;;1999.90;999.90;;;7.60;99.90;;;;;;4826610;29;20169;-77
2021/04/02 04:46:18;;;;;;;1999.90;999.90;;;7.60;99.90;;;;;;4826263;29;20200;-77
2021/04/02 04:48:46;;;;;;;1999.90;999.90;;;7.50;99.90;;;;;;4810011;29;20177;-77
2021/04/02 04:51:16;;;;;;;1999.90;999.90;;;7.40;99.90;;;;;;4826377;29;20778;-77
2021/04/02 04:53:43;;;;;;;1999.90;999.90;;;7.40;99.90;;;;;;4810973;29;20165;-77
2021/04/02 04:56:12;;;;;;;1999.90;999.90;;;7.40;99.90;;;;;;4826064;29;20222;-77
2021/04/02 04:58:41;;;;;;;1999.90;999.90;;;7.30;99.90;;;;;;4809782;29;20224;-77
2021/04/02 05:01:11;;;;;;;1999.90;999.90;;;7.20;99.90;;;;;;4826141;29;20223;-77
2021/04/02 05:03:37;;;;;;;1999.90;999.90;;;7.30;99.90;;;;;;4826385;29;20690;-77
2021/04/02 05:06:05;;;;;;;1999.90;999.90;;;7.40;99.90;;;;;;4825944;29;20224;-77
2021/04/02 05:08:42;;;;;;;1999.90;999.90;;;7.50;99.90;;;;;;4809633;29;20173;-77
2021/04/02 05:11:13;;;;;;;1999.90;999.90;;;7.40;99.90;;;;;;4825960;29;20179;-77
2021/04/02 05:13:40;;;;;;;1999.90;999.90;;;7.40;99.90;;;;;;4825953;29;20172;-76
2021/04/02 05:16:09;;;;;;;1999.90;999.90;;;7.40;99.90;;;;;;4826003;29;20197;-77
2021/04/02 05:18:36;;;;;;;1999.90;999.90;;;7.30;99.90;;;;;;4809432;29;20685;-77
2021/04/02 05:21:02;;;;;;;1999.90;999.90;;;7.30;99.90;;;;;;4825835;29;20537;-77
2021/04/02 05:23:28;;;;;;;1999.90;999.90;;;7.20;99.90;;;;;;4825689;29;20168;-76
2021/04/02 05:25:54;;;;;;;1999.90;999.90;;;7.20;99.90;;;;;;4825658;29;20179;-76
2021/04/02 05:28:20;;;;;;;1999.90;999.90;;;7.20;99.90;;;;;;4825673;29;20418;-77
2021/04/02 05:30:46;;;;;;;1999.90;999.90;;;7.20;99.90;;;;;;4825755;29;20183;-76
2021/04/02 05:33:12;;;;;;;1999.90;999.90;;;7.20;99.90;;;;;;4825658;29;20259;-77
2021/04/02 05:35:38;;;;;;;1999.90;999.90;;;7.30;99.90;;;;;;4825565;29;20579;-77
2021/04/02 05:38:04;;;;;;;1999.90;999.90;;;7.20;99.90;;;;;;4825296;29;20216;-77
2021/04/02 05:40:30;;;;;;;1999.90;999.90;;;7.20;99.90;;;;;;4825530;29;20168;-77
2021/04/02 05:43:08;;;;;;;1999.90;999.90;;;7.30;99.90;;;;;;4808962;29;20527;-77
2021/04/02 05:45:36;;;;;;;1999.90;999.90;;;7.40;99.90;;;;;;4809088;29;20161;-77
2021/04/02 05:48:03;;;;;;;1999.90;999.90;;;7.40;99.90;;;;;;4809070;29;20648;-77
2021/04/02 05:50:31;;;;;;;1999.90;999.90;;;7.50;99.90;;;;;;4825464;29;20200;-77
2021/04/02 05:53:03;;;;;;;1999.90;999.90;;;7.50;99.90;;;;;;4809205;29;20192;-77
2021/04/02 05:55:32;;;;;;;1999.90;999.90;;;7.40;99.90;;;;;;4809006;29;20175;-77
2021/04/02 05:57:58;;;;;;;1999.90;999.90;;;7.30;99.90;;;;;;4825209;29;20200;-77
2021/04/02 06:00:25;;;;;;;1999.90;999.90;;;7.40;99.90;;;;;;4825642;29;20259;-77
2021/04/02 06:02:51;;;;;;;1999.90;999.90;;;7.40;99.90;;;;;;4808867;29;20181;-77
2021/04/02 06:05:16;;;;;;;1999.90;999.90;;;7.30;99.90;;;;;;4808999;29;20173;-77
2021/04/02 06:07:43;;;;;;;1999.90;999.90;;;7.30;99.90;;;;;;4825258;29;20195;-77
2021/04/02 06:10:09;;;;;;;1999.90;999.90;;;7.20;99.90;;;;;;4825146;29;20227;-77
2021/04/02 06:12:36;;;;;;;1999.90;999.90;;;7.10;99.90;;;;;;4825287;29;20179;-77
2021/04/02 06:15:06;;;;;;;1999.90;999.90;;;7.10;99.90;;;;;;4809163;29;20229;-77
2021/04/02 06:18:00;;;;;;;1999.90;999.90;;;7.10;99.90;;;;;;4824792;29;20181;-77
2021/04/02 06:20:28;;;;;;;1999.90;999.90;;;7.10;99.90;;;;;;4824872;29;20185;-77
2021/04/02 06:23:15;;;;;;;1999.90;999.90;;;7.10;99.90;;;;;;4824938;29;20172;-77
2021/04/02 06:25:52;;;;;;;1999.90;999.90;;;7.10;99.90;;;;;;4824915;29;20172;-77
2021/04/02 06:28:26;;;;;;;1999.90;999.90;;;7.20;99.90;;;;;;4825070;29;20169;-77
2021/04/02 06:31:02;;;;;;;1999.90;999.90;;;7.30;99.90;;;;;;4808699;29;20655;-77
2021/04/02 06:33:50;;;;;;;1999.90;999.90;;;7.20;99.90;;;;;;4825026;29;20165;-77
2021/04/02 06:36:17;;;;;;;1999.90;999.90;;;7.30;99.90;;;;;;4808060;29;20199;-77
2021/04/02 06:38:48;;;;;;;1999.90;999.90;;;7.40;99.90;;;;;;4808167;29;20200;-76
2021/04/02 06:41:15;;;;;;;1999.90;999.90;;;7.40;99.90;;;;;;4808191;29;20157;-77
2021/04/02 06:43:46;;;;;;;1999.90;999.90;;;7.50;99.90;;;;;;4824626;29;20164;-77
2021/04/02 06:46:14;;;;;;;1999.90;999.90;;;7.60;99.90;;;;;;4824615;29;20181;-77
2021/04/02 06:48:43;;;;;;;1999.90;999.90;;;7.60;99.90;;;;;;4808518;29;20537;-77
2021/04/02 06:51:17;;;;;;;1999.90;999.90;;;7.60;99.90;;;;;;4808053;29;20232;-77
2021/04/02 06:53:48;;;;;;;1999.90;999.90;;;7.80;99.90;;;;;;4824033;29;20169;-77
2021/04/02 06:56:14;;;;;;;1999.90;999.90;;;7.80;99.90;;;;;;4824721;29;20188;-77
2021/04/02 06:58:41;;;;;;;1999.90;999.90;;;7.70;99.90;;;;;;4824909;29;20196;-77
2021/04/02 07:01:08;;;;;;;1999.90;999.90;;;7.60;99.90;;;;;;4807918;29;20172;-77
2021/04/02 07:03:35;;;;;;;1999.90;999.90;;;7.70;99.90;;;;;;4807970;29;20177;-77
2021/04/02 07:06:03;;;;;;;1999.90;999.90;;;7.60;99.90;;;;;;4824315;29;20168;-77
2021/04/02 07:08:31;;;;;;;1999.90;999.90;;;7.70;99.90;;;;;;4824657;29;20545;-77
2021/04/02 07:10:57;;;;;;;1999.90;999.90;;;7.70;99.90;;;;;;4824279;29;20177;-77
2021/04/02 07:13:45;;;;;;;1999.90;999.90;;;7.80;99.90;;;;;;4824676;29;20176;-77
2021/04/02 07:16:11;;;;;;;1999.90;999.90;;;7.80;99.90;;;;;;4824523;29;20673;-77
2021/04/02 07:18:38;;;;;;;1999.90;999.90;;;7.80;99.90;;;;;;4824135;29;20252;-77
2021/04/02 07:21:05;;;;;;;1999.90;999.90;;;7.90;99.90;;;;;;4824489;29;20502;-77
2021/04/02 07:23:32;;;;;;;1999.90;999.90;;;8.10;99.90;;;;;;4824204;29;20176;-77
2021/04/02 07:25:58;;;;;;;1999.90;999.90;;;8.10;99.90;;;;;;4824275;29;20709;-77
2021/04/02 07:28:26;;;;;;;1999.90;999.90;;;8.10;99.90;;;;;;4824096;29;20187;-77
2021/04/02 07:30:53;;;;;;;1999.90;999.90;;;8.20;99.90;;;;;;4824065;29;20255;-77
2021/04/02 07:33:20;;;;;;;1999.90;999.90;;;8.20;99.90;;;;;;4824220;29;20180;-77
2021/04/02 07:35:55;;;;;;;1999.90;999.90;;;8.20;99.90;;;;;;4824047;29;20717;-77
2021/04/02 07:38:26;;;;;;;1999.90;999.90;;;8.30;99.90;;;;;;4807527;29;20584;-77
2021/04/02 07:40:52;;;;;;;1999.90;999.90;;;8.40;99.90;;;;;;4824094;29;20217;-77
2021/04/02 07:43:19;;;;;;;1999.90;999.90;;;8.50;99.90;;;;;;4824134;29;20169;-77
2021/04/02 07:45:52;;;;;;;1999.90;999.90;;;8.60;99.90;;;;;;4807489;29;20649;-77
2021/04/02 07:48:25;;;;;;;1999.90;999.90;;;8.50;99.90;;;;;;4824328;29;20172;-77
2021/04/02 07:50:57;;;;;;;1999.90;999.90;;;8.60;99.90;;;;;;4807564;29;20251;-77
2021/04/02 07:53:25;;;;;;;1999.90;999.90;;;8.80;99.90;;;;;;4807627;29;20582;-78
2021/04/02 07:56:10;;;;;;;1999.90;999.90;;;8.90;99.90;;;;;;4824060;29;20226;-77
2021/04/02 07:58:45;;;;;;;1999.90;999.90;;;8.80;99.90;;;;;;4807448;29;20710;-77
2021/04/02 08:01:10;;;;;;;1999.90;999.90;;;8.90;99.90;;;;;;4824488;29;20240;-77
2021/04/02 08:03:36;;;;;;;1999.90;999.90;;;8.70;99.90;;;;;;4823968;29;20255;-77
2021/04/02 08:06:09;;;;;;;1999.90;999.90;;;8.70;99.90;;;;;;4824470;29;20168;-77
2021/04/02 08:08:46;;;;;;;1999.90;999.90;;;8.60;99.90;;;;;;4810759;29;20164;-77
2021/04/02 08:11:26;;;;;;;1999.90;999.90;;;8.60;99.90;;;;;;4810793;29;20240;-77
2021/04/02 08:13:53;;;;;;;1999.90;999.90;;;8.70;99.90;;;;;;4826962;29;20188;-77
2021/04/02 08:16:38;;;;;;;1999.90;999.90;;;8.80;99.90;;;;;;4827024;29;20555;-77
2021/04/02 08:19:08;;;;;;;1999.90;999.90;;;8.80;99.90;;;;;;4810508;29;20248;-77
2021/04/02 08:21:35;;;;;;;1999.90;999.90;;;8.90;99.90;;;;;;4810597;29;20268;-77
2021/04/02 08:24:03;;;;;;;1999.90;999.90;;;9.00;99.90;;;;;;4827048;29;20157;-78
2021/04/02 08:26:33;;;;;;;1999.90;999.90;;;9.10;99.90;;;;;;4826942;29;20203;-77
2021/04/02 08:29:01;;;;;;;1999.90;999.90;;;9.20;99.90;;;;;;4827367;29;20200;-77
2021/04/02 08:31:27;;;;;;;1999.90;999.90;;;9.30;99.90;;;;;;4826980;29;20233;-77
2021/04/02 08:33:53;;;;;;;1999.90;999.90;;;9.40;99.90;;;;;;4826820;29;20267;-77
2021/04/02 08:36:22;;;;;;;1999.90;999.90;;;9.30;99.90;;;;;;4810223;29;20485;-77
2021/04/02 08:38:49;;;;;;;1999.90;999.90;;;9.20;99.90;;;;;;4810259;29;20257;-77
2021/04/02 08:41:16;;;;;;;1999.90;999.90;;;9.20;99.90;;;;;;4826618;29;20169;-77
2021/04/02 08:43:42;;;;;;;1999.90;999.90;;;9.20;99.90;;;;;;4810309;29;20180;-77
2021/04/02 08:46:08;;;;;;;1999.90;999.90;;;9.10;99.90;;;;;;4826380;29;20244;-77
2021/04/02 08:48:33;;;;;;;1999.90;999.90;;;9.00;99.90;;;;;;4826916;29;20181;-77
2021/04/02 08:51:00;;;;;;;1999.90;999.90;;;8.90;99.90;;;;;;4810115;29;20177;-77
2021/04/02 08:53:39;;;;;;;1999.90;999.90;;;8.80;99.90;;;;;;4826367;29;20168;-77
2021/04/02 08:56:06;;;;;;;1999.90;999.90;;;8.70;99.90;;;;;;4826468;29;20211;-77
2021/04/02 08:58:33;;;;;;;1999.90;999.90;;;8.60;99.90;;;;;;4826028;29;20256;-77
2021/04/02 09:00:59;;;;;;;1999.90;999.90;;;8.40;99.90;;;;;;4826271;29;20168;-77
2021/04/02 09:03:24;;;;;;;1999.90;999.90;;;8.60;99.90;;;;;;4809724;29;20173;-77
2021/04/02 09:05:50;;;;;;;1999.90;999.90;;;8.70;99.90;;;;;;4826222;29;20248;-77
2021/04/02 09:08:20;;;;;;;1999.90;999.90;;;8.80;99.90;;;;;;4826068;29;20196;-77
2021/04/02 09:10:46;;;;;;;1999.90;999.90;;;9.00;99.90;;;;;;4827093;29;20665;-78
2021/04/02 09:13:12;;;;;;;1999.90;999.90;;;9.20;99.90;;;;;;4811556;29;20557;-77
2021/04/02 09:15:38;;;;;;;1999.90;999.90;;;9.30;99.90;;;;;;4827732;29;20172;-77
2021/04/02 09:18:28;;;;;;;1999.90;999.90;;;9.50;99.90;;;;;;4811440;29;20208;-77
2021/04/02 09:20:59;;;;;;;1999.90;999.90;;;9.80;99.90;;;;;;4828216;29;20160;-77
2021/04/02 09:23:25;;;;;;;1999.90;999.90;;;9.90;99.90;;;;;;4810394;29;20260;-78
2021/04/02 09:25:53;;;;;;;1999.90;999.90;;;9.90;99.90;;;;;;4810617;29;20165;-77
2021/04/02 09:28:26;;;;;;;1999.90;999.90;;;9.80;99.90;;;;;;4828355;29;20537;-77
2021/04/02 09:31:21;;;;;;;1999.90;999.90;;;9.60;99.90;;;;;;4813428;29;20249;-78
2021/04/02 09:33:59;;;;;;;1999.90;999.90;;;9.60;99.90;;;;;;4827145;29;20157;-78
2021/04/02 09:36:28;;;;;;;1999.90;999.90;;;9.40;99.90;;;;;;4826918;29;20231;-77
2021/04/02 09:39:24;;;;;;;1999.90;999.90;;;9.50;99.90;;;;;;4827015;29;20189;-77
2021/04/02 09:41:57;;;;;;;1999.90;999.90;;;9.60;99.90;;;;;;4811447;29;20164;-78
2021/04/02 09:44:28;;;;;;;1999.90;999.90;;;9.60;99.90;;;;;;4809877;29;20176;-77
2021/04/02 09:47:13;;;;;;;1999.90;999.90;;;9.70;99.90;;;;;;4827381;29;20189;-78
2021/04/02 09:49:41;;;;;;;1999.90;999.90;;;9.90;99.90;;;;;;4826858;29;20214;-78
2021/04/02 09:52:08;;;;;;;1999.90;999.90;;;10.10;99.90;;;;;;4827871;29;20704;-78
2021/04/02 09:54:34;;;;;;;1999.90;999.90;;;10.30;99.90;;;;;;4826316;29;20229;-78
2021/04/02 09:57:08;;;;;;;1999.90;999.90;;;10.30;99.90;;;;;;4826799;29;20622;-77
2021/04/02 09:59:34;;;;;;;1999.90;999.90;;;10.40;99.90;;;;;;4826482;29;20196;-78
2021/04/02 10:02:00;;;;;;;1999.90;999.90;;;10.40;99.90;;;;;;4826736;29;20172;-78
2021/04/02 10:04:26;;;;;;;1999.90;999.90;;;10.30;99.90;;;;;;4825780;29;20176;-78
2021/04/02 10:06:52;;;;;;;1999.90;999.90;;;10.30;99.90;;;;;;4826670;29;20461;-78
2021/04/02 10:09:18;;;;;;;1999.90;999.90;;;10.30;99.90;;;;;;4825652;29;20165;-77
2021/04/02 10:11:45;;;;;;;1999.90;999.90;;;10.30;99.90;;;;;;4825589;29;20649;-77
2021/04/02 10:14:13;;;;;;;1999.90;999.90;;;10.30;99.90;;;;;;4827642;29;20312;-78
2021/04/02 10:16:39;;;;;;;1999.90;999.90;;;10.30;99.90;;;;;;4827065;29;20610;-77
2021/04/02 10:19:05;;;;;;;1999.90;999.90;;;10.20;99.90;;;;;;4827540;29;20196;-77
2021/04/02 10:21:33;;;;;;;1999.90;999.90;;;10.30;99.90;;;;;;4829462;29;20653;-78
2021/04/02 10:24:01;;;;;;;1999.90;999.90;;;10.40;99.90;;;;;;4829981;29;20216;-78
2021/04/02 10:26:28;;;;;;;1999.90;999.90;;;10.50;99.90;;;;;;4828509;29;20189;-78
2021/04/02 10:28:55;;;;;;;1999.90;999.90;;;10.50;99.90;;;;;;4826337;29;20185;-77
2021/04/02 10:31:21;;;;;;;1999.90;999.90;;;10.50;99.90;;;;;;4826349;29;20168;-78
2021/04/02 10:33:46;;;;;;;1999.90;999.90;;;10.50;99.90;;;;;;4826659;29;20653;-78
2021/04/02 10:36:12;;;;;;;1999.90;999.90;;;10.60;99.90;;;;;;4827396;29;20221;-78
2021/04/02 10:38:38;;;;;;;1999.90;999.90;;;10.50;98.10;;;;;;4828737;29;20224;-78
2021/04/02 10:41:04;;;;;;;1999.90;999.90;;;10.50;98.00;;;;;;4827289;29;20395;-78
2021/04/02 10:43:31;;;;;;;1999.90;999.90;;;10.50;96.60;;;;;;4794532;29;20188;-78
2021/04/02 10:45:57;;;;;;;1999.90;999.90;;;10.60;96.60;;;;;;4825132;29;20526;-77
2021/04/02 10:48:24;;;;;;;1999.90;999.90;;;10.70;96.20;;;;;;4828912;29;20309;-78
2021/04/02 10:50:50;;;;;;;1999.90;999.90;;;10.70;95.90;;;;;;4828365;29;20918;-78
2021/04/02 10:53:17;;;;;;;1999.90;999.90;;;10.60;96.30;;;;;;4828752;29;20176;-78
2021/04/02 10:55:44;;;;;;;1999.90;999.90;;;10.70;97.60;;;;;;4831755;29;20153;-78
2021/04/02 10:58:11;;;;;;;1999.90;999.90;;;10.70;97.60;;;;;;4830892;29;20192;-78
2021/04/02 11:00:38;;;;;;;1999.90;999.90;;;10.70;97.20;;;;;;4831210;29;20205;-78
2021/04/02 11:03:08;;;;;;;1999.90;999.90;;;10.70;97.70;;;;;;4828814;29;20167;-78
2021/04/02 11:05:35;;;;;;;1999.90;999.90;;;10.80;97.60;;;;;;4829283;29;20165;-78
2021/04/02 11:08:01;;;;;;;1999.90;999.90;;;10.80;98.10;;;;;;4831207;29;20188;-78
2021/04/02 11:10:28;;;;;;;1999.90;999.90;;;10.90;97.00;;;;;;4831946;29;20511;-78
2021/04/02 11:12:54;;;;;;;1999.90;999.90;;;10.70;99.40;;;;;;4830925;29;20183;-78
2021/04/02 11:15:21;;;;;;;1999.90;999.90;;;10.50;99.90;;;;;;4830701;29;20168;-78
2021/04/02 11:18:05;;;;;;;1999.90;999.90;;;10.50;99.90;;;;;;4859397;24;20777;-86
2021/04/02 11:23:47;;;;;;;1999.90;999.90;;;10.60;99.20;;;;;;4824846;29;20653;-86
2021/04/02 11:26:16;;;;;;;1999.90;999.90;;;10.70;98.20;;;;;;4826831;29;20179;-87
2021/04/02 11:28:47;;;;;;;1999.90;999.90;;;10.80;97.40;;;;;;4810876;29;20197;-85
2021/04/02 11:31:13;;;;;;;1999.90;999.90;;;10.90;97.30;;;;;;4809249;29;20511;-85
2021/04/02 11:33:44;;;;;;;1999.90;999.90;;;11.00;96.50;;;;;;4809695;29;20181;-85
2021/04/02 11:36:27;;;;;;;1999.90;999.90;;;11.00;94.40;;;;;;4792518;29;20204;-84
2021/04/02 11:39:02;;;;;;;1999.90;999.90;;;10.80;93.10;;;;;;4808620;29;20562;-85
2021/04/02 11:41:28;;;;;;;1999.90;999.90;;;10.80;94.20;;;;;;4813400;29;20169;-85
2021/04/02 11:43:54;;;;;;;1999.90;999.90;;;10.80;93.70;;;;;;4812837;29;20779;-84
2021/04/02 11:46:19;;;;;;;1999.90;999.90;;;10.80;91.00;;;;;;4811982;29;20207;-86
2021/04/02 11:48:48;;;;;;;1999.90;999.90;;;10.70;93.20;;;;;;4812379;29;20200;-84
2021/04/02 11:51:13;;;;;;;1999.90;999.90;;;10.60;95.10;;;;;;4812394;29;20181;-84
2021/04/02 11:53:39;;;;;;;1999.90;999.90;;;10.60;95.10;;;;;;4812439;29;20256;-84
2021/04/02 11:56:05;;;;;;;1999.90;999.90;;;10.60;95.00;;;;;;4810756;29;20230;-85
2021/04/02 11:58:31;;;;;;;1999.90;999.90;;;10.50;96.10;;;;;;4811964;29;20238;-84
2021/04/02 12:00:57;;;;;;;1999.90;999.90;;;10.40;94.80;;;;;;4811684;29;20169;-84
2021/04/02 12:03:23;;;;;;;1999.90;999.90;;;10.40;96.80;;;;;;4811562;29;20471;-84
2021/04/02 12:05:48;;;;;;;1999.90;999.90;;;10.40;97.00;;;;;;4811140;29;20506;-84
2021/04/02 12:08:14;;;;;;;1999.90;999.90;;;10.50;98.00;;;;;;4810600;29;20212;-85
2021/04/02 12:10:40;;;;;;;1999.90;999.90;;;10.50;99.20;;;;;;4810905;29;20252;-84
2021/04/02 12:13:06;;;;;;;1999.90;999.90;;;10.30;99.50;;;;;;4794461;29;20422;-85
2021/04/02 12:15:31;;;;;;;1999.90;999.90;;;10.10;99.90;;;;;;4810526;29;20177;-84
2021/04/02 12:17:57;;;;;;;1999.90;999.90;;;9.90;99.90;;;;;;4809988;29;20208;-85